createdAt,value
2023-08-07T00:02:05.239Z,94529.84
2023-08-07T00:04:32.038Z,94537.78
2023-08-07T00:06:58.825Z,94527.25
2023-08-07T00:09:25.622Z,94531.38
2023-08-07T00:11:52.452Z,94534.63
2023-08-07T00:14:19.255Z,94528.06
2023-08-07T00:16:46.139Z,94536.63
2023-08-07T00:19:12.936Z,94532.66
2023-08-07T00:21:40.249Z,94538.19
2023-08-07T00:24:07.224Z,94540.03
2023-08-07T00:26:34.114Z,94536.13
2023-08-07T00:29:01.209Z,94542.47
2023-08-07T00:31:32.166Z,94549.09
2023-08-07T00:34:00.703Z,94556.50
2023-08-07T00:36:30.049Z,94543.53
2023-08-07T00:38:57.152Z,94554.09
2023-08-07T00:41:24.405Z,94554.59
2023-08-07T00:43:51.377Z,94551.63
2023-08-07T00:46:19.446Z,94558.28
2023-08-07T00:48:47.060Z,94559.16
2023-08-07T00:51:14.220Z,94560.69
2023-08-07T00:53:41.748Z,94549.13
2023-08-07T00:56:08.854Z,94566.03
2023-08-07T00:58:35.975Z,94568.63
2023-08-07T01:01:04.004Z,94560.22
2023-08-07T01:03:31.027Z,94570.81
2023-08-07T01:05:58.173Z,94571.00
2023-08-07T01:08:28.905Z,94571.59
2023-08-07T01:11:23.711Z,94566.59
2023-08-07T01:14:16.412Z,94562.34
2023-08-07T01:16:54.333Z,94567.09
2023-08-07T01:19:26.440Z,94572.13
2023-08-07T01:22:07.974Z,94575.31
2023-08-07T01:24:39.051Z,94583.78
2023-08-07T01:27:23.989Z,94589.59
2023-08-07T01:30:18.947Z,94580.88
2023-08-07T01:33:17.745Z,94580.84
2023-08-07T01:35:48.785Z,94583.50
2023-08-07T01:38:16.363Z,94579.81
2023-08-07T01:40:44.769Z,94577.94
2023-08-07T01:43:11.501Z,94586.13
2023-08-07T01:45:38.585Z,94583.25
2023-08-07T01:48:05.681Z,94575.59
2023-08-07T01:50:32.682Z,94580.31
2023-08-07T01:52:59.527Z,94582.72
2023-08-07T01:55:26.568Z,94584.56
2023-08-07T01:57:53.549Z,94585.09
2023-08-07T02:00:20.895Z,94582.72
2023-08-07T02:02:48.308Z,94579.25
2023-08-07T02:05:16.191Z,94579.81
2023-08-07T02:07:43.270Z,94586.44
2023-08-07T02:10:10.293Z,94588.53
2023-08-07T02:12:37.177Z,94596.75
2023-08-07T02:15:04.358Z,94586.69
2023-08-07T02:17:31.696Z,94592.50
2023-08-07T02:19:59.008Z,94594.34
2023-08-07T02:22:26.233Z,94598.84
2023-08-07T02:24:53.060Z,94588.81
2023-08-07T02:27:19.923Z,94586.13
2023-08-07T02:29:47.582Z,94588.28
2023-08-07T02:32:14.369Z,94586.16
2023-08-07T02:34:41.409Z,94595.16
2023-08-07T02:37:08.176Z,94588.00
2023-08-07T02:39:34.991Z,94590.38
2023-08-07T02:42:01.969Z,94592.50
2023-08-07T02:44:28.777Z,94591.44
2023-08-07T02:46:55.803Z,94589.59
2023-08-07T02:49:22.937Z,94600.69
2023-08-07T02:51:49.903Z,94595.16
2023-08-07T02:54:16.676Z,94594.63
2023-08-07T02:56:43.540Z,94600.97
2023-08-07T02:59:10.374Z,94609.97
2023-08-07T03:01:37.330Z,94602.03
2023-08-07T03:04:04.290Z,94602.28
2023-08-07T03:06:31.247Z,94609.19
2023-08-07T03:08:58.002Z,94607.31
2023-08-07T03:11:24.868Z,94606.00
2023-08-07T03:13:51.672Z,94607.06
2023-08-07T03:16:18.834Z,94611.03
2023-08-07T03:18:46.112Z,94611.53
2023-08-07T03:21:12.895Z,94607.84
2023-08-07T03:23:40.718Z,94610.47
2023-08-07T03:28:40.915Z,94608.91
2023-08-07T03:31:07.871Z,94612.88
2023-08-07T03:33:36.546Z,94619.47
2023-08-07T03:36:03.525Z,94618.41
2023-08-07T03:38:30.367Z,94628.47
2023-08-07T03:40:57.943Z,94622.38
2023-08-07T03:43:25.202Z,94627.41
2023-08-07T03:46:00.335Z,94625.78
2023-08-07T03:48:30.601Z,94630.59
2023-08-07T03:51:05.608Z,94632.16
2023-08-07T03:53:36.404Z,94634.28
2023-08-07T03:56:03.536Z,94628.75
2023-08-07T03:58:31.829Z,94632.16
2023-08-07T04:00:58.840Z,94639.25
2023-08-07T04:03:26.522Z,94639.59
2023-08-07T04:05:55.621Z,94648.88
2023-08-07T04:08:24.258Z,94647.78
2023-08-07T04:11:04.440Z,94652.00
2023-08-07T04:13:33.499Z,94651.75
2023-08-07T04:16:02.149Z,94653.63
2023-08-07T04:18:30.283Z,94656.78
2023-08-07T04:20:58.156Z,94660.19
2023-08-07T04:23:25.571Z,94665.25
2023-08-07T04:25:53.859Z,94654.41
2023-08-07T04:28:20.835Z,94663.41
2023-08-07T04:30:52.168Z,94657.31
2023-08-07T04:33:20.188Z,94658.88
2023-08-07T04:35:47.933Z,94670.53
2023-08-07T04:38:18.519Z,94665.47
2023-08-07T04:40:49.558Z,94663.34
2023-08-07T04:43:23.226Z,94670.78
2023-08-07T04:45:50.491Z,94671.03
2023-08-07T04:48:19.092Z,94686.41
2023-08-07T04:50:46.098Z,94691.94
2023-08-07T04:53:12.964Z,94688.16
2023-08-07T04:55:40.001Z,94681.06
2023-08-07T04:58:07.010Z,94681.34
2023-08-07T05:00:34.138Z,94679.00
2023-08-07T05:03:01.390Z,94679.25
2023-08-07T05:05:28.932Z,94676.63
2023-08-07T05:07:56.660Z,94680.56
2023-08-07T05:10:23.565Z,94693.56
2023-08-07T05:12:56.224Z,94670.81
2023-08-07T05:15:27.169Z,94686.13
2023-08-07T05:17:54.247Z,94681.38
2023-08-07T05:20:21.375Z,94691.16
2023-08-07T05:22:48.266Z,94687.75
2023-08-07T05:25:17.079Z,94687.19
2023-08-07T05:27:44.768Z,94693.53
2023-08-07T05:30:12.380Z,94697.81
2023-08-07T05:32:39.291Z,94694.59
2023-08-07T05:35:07.109Z,94703.56
2023-08-07T05:37:34.696Z,94712.28
2023-08-07T05:40:01.619Z,94708.13
2023-08-07T05:42:28.795Z,94715.53
2023-08-07T05:44:55.805Z,94731.84
2023-08-07T05:47:22.632Z,94709.13
2023-08-07T05:49:49.412Z,94722.63
2023-08-07T05:52:16.866Z,94731.91
2023-08-07T05:54:43.668Z,94732.47
2023-08-07T05:57:10.959Z,94726.38
2023-08-07T05:59:37.822Z,94740.41
2023-08-07T06:02:05.519Z,94749.41
2023-08-07T06:04:32.609Z,94747.56
2023-08-07T06:06:59.403Z,94746.22
2023-08-07T06:09:26.779Z,94746.97
2023-08-07T06:11:53.789Z,94744.88
2023-08-07T06:14:20.714Z,94743.81
2023-08-07T06:16:47.609Z,94751.47
2023-08-07T06:19:29.229Z,94754.81
2023-08-07T06:21:58.906Z,94753.38
2023-08-07T06:24:26.983Z,94749.69
2023-08-07T06:26:53.956Z,94751.75
2023-08-07T06:29:20.707Z,94744.88
2023-08-07T06:31:47.496Z,94754.44
2023-08-07T06:34:14.354Z,94745.16
2023-08-07T06:36:41.414Z,94742.22
2023-08-07T06:39:08.260Z,94741.94
2023-08-07T06:41:35.054Z,94733.69
2023-08-07T06:44:01.845Z,94729.97
2023-08-07T06:46:29.114Z,94743.41
2023-08-07T06:48:55.963Z,94752.91
2023-08-07T06:51:22.929Z,94744.69
2023-08-07T06:53:49.753Z,94741.31
2023-08-07T06:56:16.591Z,94750.53
2023-08-07T06:58:43.545Z,94752.88
2023-08-07T07:01:10.455Z,94750.63
2023-08-07T07:03:37.265Z,94748.00
2023-08-07T07:06:04.361Z,94746.97
2023-08-07T07:08:31.130Z,94748.72
2023-08-07T07:10:59.537Z,94755.97
2023-08-07T07:13:26.352Z,94762.59
2023-08-07T07:15:56.694Z,94760.88
2023-08-07T07:18:23.627Z,94768.69
2023-08-07T07:20:58.681Z,94766.31
2023-08-07T07:23:25.963Z,94750.66
2023-08-07T07:25:52.755Z,94772.50
2023-08-07T07:28:19.594Z,94771.84
2023-08-07T07:30:46.502Z,94776.44
2023-08-07T07:33:14.986Z,94775.75
2023-08-07T07:35:41.864Z,94772.19
2023-08-07T07:38:09.166Z,94770.38
2023-08-07T07:40:36.366Z,94790.06
2023-08-07T07:43:04.315Z,94794.03
2023-08-07T07:45:31.259Z,94779.88
2023-08-07T07:47:58.159Z,94776.75
2023-08-07T07:50:25.015Z,94799.75
2023-08-07T07:52:51.837Z,94802.09
2023-08-07T07:55:18.734Z,94798.75
2023-08-07T07:57:45.577Z,94809.66
2023-08-07T08:00:14.287Z,94803.63
2023-08-07T08:02:44.613Z,94807.59
2023-08-07T08:05:16.722Z,94809.06
2023-08-07T08:07:43.850Z,94817.44
2023-08-07T08:10:11.140Z,94817.63
2023-08-07T08:12:38.195Z,94823.16
2023-08-07T08:15:06.040Z,94823.53
2023-08-07T08:17:33.339Z,94819.91
2023-08-07T08:20:00.490Z,94822.44
2023-08-07T08:22:27.373Z,94831.81
2023-08-07T08:24:54.188Z,94826.28
2023-08-07T08:27:21.037Z,94827.41
2023-08-07T08:29:47.915Z,94831.66
2023-08-07T08:32:15.114Z,94823.94
2023-08-07T08:34:41.987Z,94821.63
2023-08-07T08:37:09.210Z,94836.25
2023-08-07T08:39:36.088Z,94826.38
2023-08-07T08:42:03.481Z,94835.50
2023-08-07T08:44:32.537Z,94836.47
2023-08-07T08:47:01.636Z,94849.19
2023-08-07T08:49:33.736Z,94845.03
2023-08-07T08:52:01.119Z,94833.09
2023-08-07T08:54:28.198Z,94849.97
2023-08-07T08:56:58.426Z,94845.06
2023-08-07T08:59:25.625Z,94843.78
2023-08-07T09:01:53.918Z,94850.44
2023-08-07T09:04:20.869Z,94848.22
2023-08-07T09:06:48.724Z,94857.34
2023-08-07T09:09:17.820Z,94861.41
2023-08-07T09:11:47.044Z,94854.72
2023-08-07T09:14:23.291Z,94847.69
2023-08-07T09:16:51.390Z,94859.50
2023-08-07T09:19:18.602Z,94847.22
2023-08-07T09:21:45.417Z,94838.81
2023-08-07T09:24:12.947Z,94851.94
2023-08-07T09:26:46.142Z,94848.84
2023-08-07T09:29:13.384Z,94849.97
2023-08-07T09:31:44.007Z,94851.47
2023-08-07T09:34:11.284Z,94861.59
2023-08-07T09:36:38.219Z,94841.22
2023-08-07T09:39:05.829Z,94852.16
2023-08-07T09:41:33.137Z,94851.88
2023-08-07T09:44:07.697Z,94853.38
2023-08-07T09:46:42.298Z,94859.34
2023-08-07T09:49:09.934Z,94852.81
2023-08-07T09:51:47.648Z,94853.81
2023-08-07T09:54:14.806Z,94858.09
2023-08-07T09:56:41.905Z,94856.81
2023-08-07T09:59:09.539Z,94859.38
2023-08-07T10:01:40.528Z,94845.06
2023-08-07T10:04:08.535Z,94846.66
2023-08-07T10:06:35.646Z,94844.25
2023-08-07T10:09:03.393Z,94841.59
2023-08-07T10:11:30.764Z,94843.19
2023-08-07T10:13:58.802Z,94834.28
2023-08-07T10:16:28.543Z,94845.28
2023-08-07T10:18:55.696Z,94851.38
2023-08-07T10:21:24.533Z,94850.94
2023-08-07T10:23:55.228Z,94861.19
2023-08-07T10:26:24.949Z,94854.81
2023-08-07T10:28:54.607Z,94859.63
2023-08-07T10:31:24.620Z,94869.34
2023-08-07T10:33:52.183Z,94867.53
2023-08-07T10:36:20.112Z,94866.00
2023-08-07T10:38:50.946Z,94861.69
2023-08-07T10:41:19.469Z,94860.00
2023-08-07T10:43:47.196Z,94850.28
2023-08-07T10:46:17.218Z,94852.34
2023-08-07T10:48:48.600Z,94856.78
2023-08-07T10:51:16.812Z,94852.19
2023-08-07T10:53:46.967Z,94851.88
2023-08-07T10:56:33.200Z,94843.53
2023-08-07T10:59:10.577Z,94839.28
2023-08-07T11:01:40.204Z,94839.59
2023-08-07T11:04:11.889Z,94830.00
2023-08-07T11:06:39.863Z,94833.69
2023-08-07T11:09:09.892Z,94828.63
2023-08-07T11:11:41.672Z,94826.66
2023-08-07T11:14:10.704Z,94818.28
2023-08-07T11:16:38.296Z,94819.94
2023-08-07T11:19:06.391Z,94820.69
2023-08-07T11:21:34.532Z,94823.78
2023-08-07T11:24:02.519Z,94829.66
2023-08-07T11:26:29.965Z,94850.63
2023-08-07T11:28:57.221Z,94840.75
2023-08-07T11:31:26.050Z,94848.50
2023-08-07T11:33:53.923Z,94847.25
2023-08-07T11:36:20.775Z,94835.69
2023-08-07T11:38:47.736Z,94840.13
2023-08-07T11:41:16.934Z,94828.25
2023-08-07T11:43:44.466Z,94828.03
2023-08-07T11:46:13.207Z,94834.25
2023-08-07T11:48:42.353Z,94828.53
2023-08-07T11:51:09.463Z,94828.03
2023-08-07T11:53:41.206Z,94835.50
2023-08-07T11:56:15.867Z,94832.66
2023-08-07T11:58:47.067Z,94835.66
2023-08-07T12:01:22.471Z,94821.88
2023-08-07T12:03:52.582Z,94842.25
2023-08-07T12:06:19.506Z,94832.16
2023-08-07T12:08:46.322Z,94831.94
2023-08-07T12:11:14.548Z,94830.88
2023-08-07T12:13:43.381Z,94820.25
2023-08-07T12:16:10.781Z,94832.75
2023-08-07T12:18:39.816Z,94838.44
2023-08-07T12:21:08.682Z,94833.25
2023-08-07T12:23:36.944Z,94824.88
2023-08-07T12:26:07.404Z,94825.50
2023-08-07T12:28:35.689Z,94822.56
2023-08-07T12:31:03.156Z,94821.94
2023-08-07T12:33:30.768Z,94816.56
2023-08-07T12:35:58.459Z,94792.84
2023-08-07T12:38:25.610Z,94843.81
2023-08-07T12:40:52.752Z,94831.66
2023-08-07T12:43:19.704Z,94830.53
2023-08-07T12:48:16.372Z,94856.16
2023-08-07T12:50:43.204Z,94851.38
2023-08-07T12:53:09.983Z,94852.00
2023-08-07T12:55:36.863Z,94839.38
2023-08-07T12:58:03.634Z,94852.81
2023-08-07T13:00:30.499Z,94861.03
2023-08-07T13:02:57.468Z,94863.25
2023-08-07T13:05:24.331Z,94870.84
2023-08-07T13:07:55.413Z,94877.31
2023-08-07T13:10:23.371Z,94890.78
2023-08-07T13:12:50.914Z,94902.78
2023-08-07T13:15:18.592Z,94929.91
2023-08-07T13:17:45.586Z,94931.22
2023-08-07T13:20:14.382Z,94927.50
2023-08-07T13:22:43.766Z,94935.38
2023-08-07T13:25:11.999Z,94940.50
2023-08-07T13:27:40.678Z,94943.69
2023-08-07T13:30:08.879Z,94943.03
2023-08-07T13:32:36.292Z,94956.00
2023-08-07T13:35:04.272Z,94956.84
2023-08-07T13:37:31.124Z,94957.47
2023-08-07T13:39:57.918Z,94960.00
2023-08-07T13:42:27.176Z,94966.53
2023-08-07T13:44:54.914Z,94956.75
2023-08-07T13:47:21.871Z,94968.88
2023-08-07T13:49:49.173Z,94961.63
2023-08-07T13:52:16.239Z,94969.28
2023-08-07T13:54:43.252Z,94961.91
2023-08-07T13:57:10.192Z,94958.84
2023-08-07T13:59:37.006Z,94965.09
2023-08-07T14:02:03.883Z,94970.00
2023-08-07T14:04:30.785Z,94960.06
2023-08-07T14:06:59.433Z,94976.22
2023-08-07T14:09:26.667Z,94972.66
2023-08-07T14:11:53.444Z,94971.16
2023-08-07T14:14:20.601Z,94973.31
2023-08-07T14:16:47.459Z,94968.88
2023-08-07T14:19:14.495Z,94974.59
2023-08-07T14:21:41.391Z,94980.03
2023-08-07T14:24:08.286Z,94990.97
2023-08-07T14:26:35.261Z,94986.47
2023-08-07T14:29:02.104Z,94985.91
2023-08-07T14:31:29.009Z,94988.66
2023-08-07T14:33:55.871Z,94988.75
2023-08-07T14:36:22.689Z,94991.66
2023-08-07T14:38:49.462Z,94999.69
2023-08-07T14:41:16.386Z,94999.66
2023-08-07T14:43:43.141Z,94996.59
2023-08-07T14:46:10.031Z,94987.63
2023-08-07T14:48:37.988Z,94992.91
2023-08-07T14:51:05.120Z,95000.28
2023-08-07T14:53:32.562Z,95005.56
2023-08-07T14:55:59.876Z,94999.06
2023-08-07T14:58:26.628Z,95005.81
2023-08-07T15:00:56.458Z,95007.00
2023-08-07T15:03:23.319Z,95013.50
2023-08-07T15:05:50.208Z,95007.81
2023-08-07T15:08:17.028Z,95009.72
2023-08-07T15:10:43.923Z,95023.25
2023-08-07T15:13:10.901Z,95024.38
2023-08-07T15:15:37.824Z,95034.19
2023-08-07T15:18:06.410Z,95041.22
2023-08-07T15:20:35.564Z,95041.00
2023-08-07T15:23:03.936Z,95045.38
2023-08-07T15:25:30.821Z,95060.31
2023-08-07T15:28:01.323Z,95053.25
2023-08-07T15:30:30.229Z,95063.84
2023-08-07T15:32:57.407Z,95046.41
2023-08-07T15:35:24.618Z,95052.28
2023-08-07T15:37:51.508Z,95059.59
2023-08-07T15:40:18.356Z,95059.84
2023-08-07T15:42:46.588Z,95060.69
2023-08-07T15:45:14.386Z,95053.84
2023-08-07T15:47:41.534Z,95073.78
2023-08-07T15:50:08.778Z,95076.66
2023-08-07T15:52:35.738Z,95079.34
2023-08-07T15:55:02.991Z,95081.38
2023-08-07T15:57:30.055Z,95074.72
2023-08-07T15:59:57.064Z,95071.47
2023-08-07T16:02:23.831Z,95066.88
2023-08-07T16:04:50.976Z,95075.41
2023-08-07T16:07:17.876Z,95064.41
2023-08-07T16:09:44.740Z,95068.41
2023-08-07T16:12:11.678Z,95073.38
2023-08-07T16:14:39.363Z,95065.56
2023-08-07T16:17:06.603Z,95069.25
2023-08-07T16:19:33.565Z,95061.31
2023-08-07T16:22:00.398Z,95071.13
2023-08-07T16:24:27.347Z,95071.06
2023-08-07T16:26:54.318Z,95068.91
2023-08-07T16:29:21.231Z,95068.50
2023-08-07T16:31:48.087Z,95075.75
2023-08-07T16:34:14.957Z,95081.72
2023-08-07T16:36:41.769Z,95070.84
2023-08-07T16:39:08.575Z,95085.09
2023-08-07T16:41:35.629Z,95078.72
2023-08-07T16:44:02.461Z,95089.28
2023-08-07T16:46:30.853Z,95085.81
2023-08-07T16:48:58.617Z,95089.38
2023-08-07T16:51:27.200Z,95090.38
2023-08-07T16:53:55.255Z,95095.16
2023-08-07T16:56:22.115Z,95097.06
2023-08-07T16:58:49.881Z,95104.16
2023-08-07T17:01:17.121Z,95097.34
2023-08-07T17:03:44.829Z,95098.53
2023-08-07T17:06:11.850Z,95102.13
2023-08-07T17:08:39.696Z,95111.03
2023-08-07T17:11:06.749Z,95096.91
2023-08-07T17:13:33.927Z,95103.81
2023-08-07T17:16:00.832Z,95097.78
2023-08-07T17:18:27.642Z,95098.34
2023-08-07T17:20:54.464Z,95089.75
2023-08-07T17:23:21.199Z,95091.50
2023-08-07T17:25:48.058Z,95105.03
2023-08-07T17:28:14.878Z,95102.41
2023-08-07T17:30:41.696Z,95104.13
2023-08-07T17:33:08.699Z,95105.44
2023-08-07T17:35:35.952Z,95105.09
2023-08-07T17:38:02.939Z,95103.72
2023-08-07T17:40:29.733Z,95099.38
2023-08-07T17:42:56.548Z,95094.34
2023-08-07T17:45:24.720Z,95096.59
2023-08-07T17:47:51.653Z,95089.44
2023-08-07T17:50:18.669Z,95087.66
2023-08-07T17:52:45.714Z,95100.47
2023-08-07T17:55:13.752Z,95099.47
2023-08-07T17:57:40.623Z,95099.31
2023-08-07T18:00:17.285Z,95107.44
2023-08-07T18:02:44.664Z,95106.13
2023-08-07T18:05:11.868Z,95098.78
2023-08-07T18:07:39.654Z,95097.41
2023-08-07T18:10:07.177Z,95103.88
2023-08-07T18:12:34.151Z,95102.56
2023-08-07T18:15:01.672Z,95105.91
2023-08-07T18:17:30.783Z,95101.47
2023-08-07T18:19:57.772Z,95105.56
2023-08-07T18:22:25.155Z,95105.03
2023-08-07T18:24:51.919Z,95114.63
2023-08-07T18:27:19.385Z,95111.09
2023-08-07T18:29:46.225Z,95116.19
2023-08-07T18:32:13.452Z,95113.28
2023-08-07T18:34:40.539Z,95109.78
2023-08-07T18:37:07.341Z,95120.69
2023-08-07T18:39:34.176Z,95116.97
2023-08-07T18:42:01.182Z,95128.16
2023-08-07T18:44:27.972Z,95121.78
2023-08-07T18:46:54.974Z,95122.59
2023-08-07T18:49:22.193Z,95120.19
2023-08-07T18:51:49.196Z,95122.03
2023-08-07T18:54:16.112Z,95131.88
2023-08-07T18:56:43.697Z,95123.13
2023-08-07T18:59:10.653Z,95119.69
2023-08-07T19:01:37.544Z,95128.97
2023-08-07T19:04:05.598Z,95136.66
2023-08-07T19:06:33.905Z,95132.41
2023-08-07T19:09:00.821Z,95136.94
2023-08-07T19:11:29.874Z,95134.00
2023-08-07T19:13:58.311Z,95145.41
2023-08-07T19:16:25.437Z,95148.88
2023-08-07T19:18:52.396Z,95145.16
2023-08-07T19:21:19.347Z,95146.75
2023-08-07T19:23:46.165Z,95154.44
2023-08-07T19:26:12.985Z,95153.63
2023-08-07T19:28:41.143Z,95146.47
2023-08-07T19:31:08.113Z,95148.06
2023-08-07T19:33:35.157Z,95150.19
2023-08-07T19:36:02.205Z,95156.81
2023-08-07T19:38:29.167Z,95158.94
2023-08-07T19:40:55.946Z,95156.25
2023-08-07T19:43:24.383Z,95155.75
2023-08-07T19:45:51.276Z,95147.53
2023-08-07T19:48:18.228Z,95157.34
2023-08-07T19:50:45.820Z,95155.22
2023-08-07T19:53:12.648Z,95155.22
2023-08-07T19:55:39.518Z,95155.22
2023-08-07T19:58:06.236Z,95155.78
2023-08-07T20:00:33.064Z,95161.19
2023-08-07T20:03:00.326Z,95156.81
2023-08-07T20:05:27.480Z,95157.34
2023-08-07T20:07:54.929Z,95161.06
2023-08-07T20:10:24.958Z,95164.22
2023-08-07T20:12:52.497Z,95157.38
2023-08-07T20:15:20.986Z,95165.06
2023-08-07T20:17:50.075Z,95165.59
2023-08-07T20:20:21.098Z,95155.78
2023-08-07T20:22:48.897Z,95148.84
2023-08-07T20:25:16.263Z,95152.84
2023-08-07T20:27:43.490Z,95149.66
2023-08-07T20:30:10.815Z,95157.88
2023-08-07T20:32:38.726Z,95160.00
2023-08-07T20:35:05.940Z,95161.81
2023-08-07T20:37:32.723Z,95155.25
2023-08-07T20:39:59.551Z,95162.88
2023-08-07T20:42:26.574Z,95155.13
2023-08-07T20:44:53.407Z,95157.81
2023-08-07T20:47:20.234Z,95160.72
2023-08-07T20:49:47.908Z,95153.34
2023-08-07T20:52:14.789Z,95152.69
2023-08-07T20:54:41.548Z,95147.22
2023-08-07T20:57:08.353Z,95146.16
2023-08-07T20:59:35.200Z,95150.59
2023-08-07T21:02:02.203Z,95155.63
2023-08-07T21:04:29.008Z,95154.56
2023-08-07T21:06:56.051Z,95155.13
2023-08-07T21:09:22.934Z,95146.94
2023-08-07T21:11:50.000Z,95142.03
2023-08-07T21:14:16.871Z,95143.91
2023-08-07T21:16:44.981Z,95141.63
2023-08-07T21:19:13.057Z,95143.88
2023-08-07T21:21:40.394Z,95139.16
2023-08-07T21:24:13.186Z,95144.94
2023-08-07T21:26:41.666Z,95142.44
2023-08-07T21:29:08.708Z,95141.16
2023-08-07T21:31:35.818Z,95137.53
2023-08-07T21:34:03.223Z,95127.53
2023-08-07T21:36:30.154Z,95132.25
2023-08-07T21:38:58.806Z,95145.53
2023-08-07T21:41:27.148Z,95138.13
2023-08-07T21:43:54.725Z,95140.75
2023-08-07T21:46:24.140Z,95134.56
2023-08-07T21:48:51.904Z,95139.84
2023-08-07T21:51:19.039Z,95146.22
2023-08-07T21:53:46.033Z,95134.06
2023-08-07T21:56:13.073Z,95140.13
2023-08-07T21:58:39.941Z,95145.38
2023-08-07T22:01:06.651Z,95143.22
2023-08-07T22:03:33.491Z,95140.19
2023-08-07T22:06:00.487Z,95135.97
2023-08-07T22:08:27.315Z,95140.44
2023-08-07T22:10:54.159Z,95140.25
2023-08-07T22:13:21.295Z,95141.78
2023-08-07T22:15:48.257Z,95152.94
2023-08-07T22:18:15.169Z,95143.41
2023-08-07T22:20:43.415Z,95143.97
2023-08-07T22:23:10.363Z,95142.06
2023-08-07T22:25:37.311Z,95146.69
2023-08-07T22:28:04.989Z,95140.78
2023-08-07T22:30:31.736Z,95128.81
2023-08-07T22:32:59.512Z,95126.63
2023-08-07T22:35:26.710Z,95125.81
2023-08-07T22:37:53.548Z,95126.69
2023-08-07T22:40:20.505Z,95124.44
2023-08-07T22:42:47.277Z,95124.69
2023-08-07T22:45:14.306Z,95121.16
2023-08-07T22:47:41.110Z,95115.94
2023-08-07T22:50:08.275Z,95119.09
2023-08-07T22:52:35.305Z,95117.50
2023-08-07T22:55:02.331Z,95122.03
2023-08-07T22:57:29.086Z,95118.50
2023-08-07T22:59:55.882Z,95118.41
2023-08-07T23:02:22.697Z,95116.91
2023-08-07T23:04:49.465Z,95118.50
2023-08-07T23:07:17.116Z,95120.19
2023-08-07T23:09:43.987Z,95108.25
2023-08-07T23:12:11.019Z,95111.16
2023-08-07T23:14:37.753Z,95104.19
2023-08-07T23:17:05.421Z,95108.09
2023-08-07T23:19:33.314Z,95101.09
2023-08-07T23:22:00.303Z,95104.31
2023-08-07T23:24:27.326Z,95109.75
2023-08-07T23:26:54.177Z,95110.84
2023-08-07T23:29:21.281Z,95112.84
2023-08-07T23:31:48.187Z,95108.28
2023-08-07T23:34:15.013Z,95108.00
2023-08-07T23:36:41.830Z,95103.63
2023-08-07T23:39:08.996Z,95101.09
2023-08-07T23:41:35.942Z,95102.41
2023-08-07T23:44:02.850Z,95102.84
2023-08-07T23:46:29.627Z,95103.41
2023-08-07T23:48:56.835Z,95097.44
2023-08-07T23:51:24.401Z,95103.78
2023-08-07T23:53:51.596Z,95107.25
2023-08-07T23:56:18.613Z,95107.97
2023-08-07T23:58:45.383Z,95103.53
